Laporte, Pennsylvania
Current Conditions -  °F | °C
As of 10:54 AM on Friday 21 Nov 2014 (Local Time) from KIPT Reporting Station
Scattered Clouds Scattered Clouds  
Wind Chill: 19°   Ceiling: Unl
Heat Index: 31°   Visibility: 10mi
Dew Point:   Wind: 18mph
Humidity: 40%   Direction: 280°W
Pressure: 30.36"   Gusts: 28mph
Location:  41.42°N, 76.49°W
Report Text: KIPT 211554Z 28016G24KT 10SM SCT045 M01/M13 A3036 RMK AO2 SLP288 T10061128
Loading
Personal Weather Stations






























Interactive Weather Map New forecast layout! Learn more

10-Day Weather Forecast

Advertisements
Track Severe Weather on mobile